Cedar Falls, IA

7:34 PM CST on December 18, 2014 (GMT -0600)
Waterloo Municipal | Change Station
CLOSE
Current Station
Airport
Location: Waterloo,
Elevation: 873 ft
Nearby Weather Stations

Elev 873 ft 42.55 °N, 92.40 °W | Updated 40 minutes ago

Overcast
Overcast
24 °F
Feels Like 17 °F
N
6
Wind Variable Wind from North

Today
High -- | Low -- °F
--% Chance of Precip.
Yesterday
High -- | Low -- °F
Precip. -- in
7:34 AM 4:38 PM
Waning Crescent, 11% visible
Pressure 30.32 in
Visibility 10.0 miles
Clouds Overcast 4800 ft
Windchill 17 °F
Dew Point 18 °F
Humidity 77%
Rainfall 0.00 in
Snow Depth Not available.
UV 0 out of 12
Pollen .10 out of 12
Air Quality Not available.
Flu Activity Not available.
METAR KALO 190054Z AUTO 36005KT 10SM OVC048 M04/M08 A3027 RMK AO2 SLP266 T10441078

More Conditions Fewer Conditions

Pressure 30.32 in
Visibility 10.0 miles
Clouds Overcast 4800 ft
Windchill 17 °F
Dew Point 18 °F
Humidity 77%
Rainfall 0.00 in
Snow Depth Not available.
UV 0 out of 12
Pollen .10 out of 12
Air Quality Not available.
Flu Activity Not available.
METAR KALO 190054Z AUTO 36005KT 10SM OVC048 M04/M08 A3027 RMK AO2 SLP266 T10441078

More Conditions Fewer Conditions

10-Day Weather Forecast

Almanac

Astronomy

Dec. 18, 2014 Rise Set
Actual Time
Civil Twilight
Nautical Twilight
Astronomical Twilight
Moon
Length of Visible Light
Length of Day
Tomorrow will be .
, % of the Moon is Illuminated

Today's Extremes

State Highs State Lows

Community

WunderPhotos

Upload Photos

1,779,032 photos uploaded!

WunderBlogs® & News

Nearby

Air Quality

  Air Quality AQ Index Pollutant
Not available.

Snow Depth

Station Depth Elevation

Earthquake Activity

City Distance Mag. Time & Date
Minimum magnitude displayed is 2.5.

Coastal Water Temperatures

Place Temperature

Nearby Weather Stations